Hartland, MI (48353)

1:11 AM EDT on September 15, 2014 (GMT -0400)
Dunham Lake | Change Station
CLOSE
Current Station
Personal Weather Station
Location: Highland, MI
Elevation: 997 ft
Nearby Weather Stations

Elev 997 ft 42.65 °N, 83.68 °W | Updated 8 seconds ago

Clear
Clear
41.6 °F
Feels Like 42 °F
N
0.0
Wind Variable Wind from North
Gusts 0.0 mph

Today
High -- | Low -- °F
--% Chance of Precip.
Yesterday
High -- | Low -- °F
Precip. -- in
7:14 AM 7:44 PM
Waning Gibbous, 59% visible
Pressure 30.20 in
Visibility 10.0 miles
Clouds Clear
Windchill 42 °F
Dew Point 37 °F
Humidity 84%
Rainfall 0.00 in
Snow Depth Not available.
UV 0.0 out of 12
Pollen 4.30 out of 12
Ozone Good
PM2.5 Moderate
Flu Activity Not available.
METAR KOZW 150455Z AUTO 00000KT 10SM CLR 07/06 A3020 RMK AO2 T00730064

More Conditions Fewer Conditions

Pressure 30.20 in
Visibility 10.0 miles
Clouds Clear
Windchill 42 °F
Dew Point 37 °F
Humidity 84%
Rainfall 0.00 in
Snow Depth Not available.
UV 0.0 out of 12
Pollen 4.30 out of 12
Ozone Good
PM2.5 Moderate
Flu Activity Not available.
METAR KOZW 150455Z AUTO 00000KT 10SM CLR 07/06 A3020 RMK AO2 T00730064

More Conditions Fewer Conditions

10-Day Weather Forecast

Almanac

Astronomy

Sep. 15, 2014 Rise Set
Actual Time 7:14 AM EDT 7:44 PM EDT
Civil Twilight 6:46 AM EDT 8:12 PM EDT
Nautical Twilight 6:12 AM EDT 8:46 PM EDT
Astronomical Twilight 5:38 AM EDT 9:20 PM EDT
Moon No Moon Rise 2:21 PM EDT
Length of Visible Light 13h 26m
Length of Day
12h 29m
Tomorrow will be 2m 51s shorter.
Waning Gibbous, 59% of the Moon is Illuminated
Today
Waning Gibbous
Sep 15
Last Quarter
Sep 24
New
Oct 1
First Quarter
Oct 8
Full

Today's Extremes

State Highs State Lows

Community

WunderPhotos

Upload Photos

1,753,411 photos uploaded!

Nearby

Air Quality

  Air Quality AQ Index Pollutant
Yesterday Good
PM2.5
Yesterday Good
OZONE
Current Moderate
PM2.5
Current Good
OZONE
Sunday Good
OZONE
Sunday Good
PM2.5
Monday Good
OZONE
Monday Good
PM2.5

Snow Depth

Station Depth Elevation
No new snow has been reported.

Earthquake Activity

City Distance Mag. Time & Date
No recent earthquake activity has been reported nearby.
Minimum magnitude displayed is 2.5.

Coastal Water Temperatures

Place Temperature
No Stations Reporting

Nearby Weather Stations